sensor_id;sensor_type;location;lat;lon;timestamp;pressure;altitude;pressure_sealevel;temperature;humidity
6413;BME280;3239;48.714;9.472;2023-07-02T00:00:07;98030.34;;;16.88;100.00
6413;BME280;3239;48.714;9.472;2023-07-02T00:02:34;98023.78;;;16.83;100.00
6413;BME280;3239;48.714;9.472;2023-07-02T00:04:59;98014.91;;;16.85;100.00
6413;BME280;3239;48.714;9.472;2023-07-02T00:07:25;98018.56;;;16.87;100.00
6413;BME280;3239;48.714;9.472;2023-07-02T00:09:52;98024.41;;;16.91;100.00
6413;BME280;3239;48.714;9.472;2023-07-02T00:12:17;98022.78;;;16.88;100.00
6413;BME280;3239;48.714;9.472;2023-07-02T00:14:43;98023.63;;;16.81;100.00
6413;BME280;3239;48.714;9.472;2023-07-02T00:17:09;98018.25;;;16.83;100.00
6413;BME280;3239;48.714;9.472;2023-07-02T00:19:39;98032.72;;;16.74;100.00
6413;BME280;3239;48.714;9.472;2023-07-02T00:22:11;98032.91;;;16.76;100.00
6413;BME280;3239;48.714;9.472;2023-07-02T00:24:37;98037.28;;;16.79;100.00
6413;BME280;3239;48.714;9.472;2023-07-02T00:27:03;98040.44;;;16.76;100.00
6413;BME280;3239;48.714;9.472;2023-07-02T00:29:29;98044.34;;;16.73;100.00
6413;BME280;3239;48.714;9.472;2023-07-02T00:31:55;98035.66;;;16.76;100.00
6413;BME280;3239;48.714;9.472;2023-07-02T00:34:21;98037.34;;;16.72;100.00
6413;BME280;3239;48.714;9.472;2023-07-02T00:36:46;98041.56;;;16.73;100.00
6413;BME280;3239;48.714;9.472;2023-07-02T00:39:12;98037.91;;;16.70;100.00
6413;BME280;3239;48.714;9.472;2023-07-02T00:41:38;98040.84;;;16.72;100.00
6413;BME280;3239;48.714;9.472;2023-07-02T00:44:04;98041.97;;;16.69;100.00
6413;BME280;3239;48.714;9.472;2023-07-02T00:46:30;98052.34;;;16.69;100.00
6413;BME280;3239;48.714;9.472;2023-07-02T00:48:56;98045.34;;;16.68;100.00
6413;BME280;3239;48.714;9.472;2023-07-02T00:51:27;98044.44;;;16.65;100.00
6413;BME280;3239;48.714;9.472;2023-07-02T00:53:55;98051.09;;;16.62;100.00
6413;BME280;3239;48.714;9.472;2023-07-02T00:56:22;98059.81;;;16.59;100.00
6413;BME280;3239;48.714;9.472;2023-07-02T00:58:50;98058.34;;;16.58;100.00
6413;BME280;3239;48.714;9.472;2023-07-02T01:01:18;98066.47;;;16.56;100.00
6413;BME280;3239;48.714;9.472;2023-07-02T01:04:02;98065.75;;;16.55;100.00
6413;BME280;3239;48.714;9.472;2023-07-02T01:06:31;98067.19;;;16.56;100.00
6413;BME280;3239;48.714;9.472;2023-07-02T01:09:05;98072.72;;;16.56;100.00
6413;BME280;3239;48.714;9.472;2023-07-02T01:14:15;98072.16;;;16.58;100.00
6413;BME280;3239;48.714;9.472;2023-07-02T01:16:43;98080.63;;;16.60;100.00
6413;BME280;3239;48.714;9.472;2023-07-02T01:19:19;98084.28;;;16.62;100.00
6413;BME280;3239;48.714;9.472;2023-07-02T01:21:47;98087.53;;;16.51;100.00
6413;BME280;3239;48.714;9.472;2023-07-02T01:24:15;98101.09;;;16.57;100.00
6413;BME280;3239;48.714;9.472;2023-07-02T01:26:41;98105.19;;;16.56;100.00
6413;BME280;3239;48.714;9.472;2023-07-02T01:29:15;98110.16;;;16.57;100.00
6413;BME280;3239;48.714;9.472;2023-07-02T01:31:41;98110.09;;;16.65;100.00
6413;BME280;3239;48.714;9.472;2023-07-02T01:34:07;98120.59;;;16.66;100.00
6413;BME280;3239;48.714;9.472;2023-07-02T01:36:35;98121.00;;;16.63;100.00
6413;BME280;3239;48.714;9.472;2023-07-02T01:39:00;98127.16;;;16.54;100.00
6413;BME280;3239;48.714;9.472;2023-07-02T01:41:26;98135.94;;;16.35;100.00
6413;BME280;3239;48.714;9.472;2023-07-02T01:43:52;98147.16;;;16.37;100.00
6413;BME280;3239;48.714;9.472;2023-07-02T01:46:17;98160.44;;;16.39;100.00
6413;BME280;3239;48.714;9.472;2023-07-02T01:48:43;98166.31;;;16.43;100.00
6413;BME280;3239;48.714;9.472;2023-07-02T01:51:09;98176.97;;;16.46;100.00
6413;BME280;3239;48.714;9.472;2023-07-02T01:53:34;98154.19;;;16.31;100.00
6413;BME280;3239;48.714;9.472;2023-07-02T01:56:00;98169.81;;;16.36;100.00
6413;BME280;3239;48.714;9.472;2023-07-02T01:58:26;98161.13;;;16.47;100.00
6413;BME280;3239;48.714;9.472;2023-07-02T02:00:52;98165.41;;;16.40;100.00
6413;BME280;3239;48.714;9.472;2023-07-02T02:03:18;98164.72;;;16.25;100.00
6413;BME280;3239;48.714;9.472;2023-07-02T02:05:43;98164.56;;;16.23;100.00
6413;BME280;3239;48.714;9.472;2023-07-02T02:08:09;98166.28;;;16.18;100.00
6413;BME280;3239;48.714;9.472;2023-07-02T02:10:35;98156.31;;;16.15;100.00
6413;BME280;3239;48.714;9.472;2023-07-02T02:13:01;98162.81;;;16.10;100.00
6413;BME280;3239;48.714;9.472;2023-07-02T02:15:27;98162.44;;;16.06;100.00
6413;BME280;3239;48.714;9.472;2023-07-02T02:17:53;98173.53;;;15.99;100.00
6413;BME280;3239;48.714;9.472;2023-07-02T02:20:18;98171.91;;;15.96;100.00
6413;BME280;3239;48.714;9.472;2023-07-02T02:22:44;98165.66;;;15.95;100.00
6413;BME280;3239;48.714;9.472;2023-07-02T02:25:10;98170.44;;;15.95;100.00
6413;BME280;3239;48.714;9.472;2023-07-02T02:27:36;98162.72;;;15.93;100.00
6413;BME280;3239;48.714;9.472;2023-07-02T02:30:02;98155.88;;;15.94;100.00
6413;BME280;3239;48.714;9.472;2023-07-02T02:32:28;98162.56;;;15.91;100.00
6413;BME280;3239;48.714;9.472;2023-07-02T02:34:53;98170.25;;;15.93;100.00
6413;BME280;3239;48.714;9.472;2023-07-02T02:37:20;98167.88;;;15.89;100.00
6413;BME280;3239;48.714;9.472;2023-07-02T02:39:47;98159.03;;;15.91;100.00
6413;BME280;3239;48.714;9.472;2023-07-02T02:42:13;98171.00;;;15.93;100.00
6413;BME280;3239;48.714;9.472;2023-07-02T02:44:39;98177.44;;;15.96;100.00
6413;BME280;3239;48.714;9.472;2023-07-02T02:47:05;98162.31;;;15.97;100.00
6413;BME280;3239;48.714;9.472;2023-07-02T02:49:31;98171.91;;;15.96;100.00
6413;BME280;3239;48.714;9.472;2023-07-02T02:51:57;98174.69;;;15.96;100.00
6413;BME280;3239;48.714;9.472;2023-07-02T02:54:22;98175.78;;;15.93;100.00
6413;BME280;3239;48.714;9.472;2023-07-02T02:56:48;98179.81;;;15.99;100.00
6413;BME280;3239;48.714;9.472;2023-07-02T02:59:14;98181.28;;;16.00;100.00
6413;BME280;3239;48.714;9.472;2023-07-02T03:01:39;98183.28;;;16.07;100.00
6413;BME280;3239;48.714;9.472;2023-07-02T03:04:05;98178.31;;;16.06;100.00
6413;BME280;3239;48.714;9.472;2023-07-02T03:06:33;98189.75;;;16.02;100.00
6413;BME280;3239;48.714;9.472;2023-07-02T03:08:59;98199.31;;;16.01;100.00
6413;BME280;3239;48.714;9.472;2023-07-02T03:11:25;98195.75;;;15.84;100.00
6413;BME280;3239;48.714;9.472;2023-07-02T03:13:51;98205.09;;;15.88;100.00
6413;BME280;3239;48.714;9.472;2023-07-02T03:16:17;98211.94;;;15.87;100.00
6413;BME280;3239;48.714;9.472;2023-07-02T03:18:42;98219.84;;;15.83;100.00
6413;BME280;3239;48.714;9.472;2023-07-02T03:21:09;98223.34;;;15.91;100.00
6413;BME280;3239;48.714;9.472;2023-07-02T03:23:35;98220.03;;;15.85;100.00
6413;BME280;3239;48.714;9.472;2023-07-02T03:26:01;98231.47;;;15.82;100.00
6413;BME280;3239;48.714;9.472;2023-07-02T03:28:26;98241.59;;;15.79;100.00
6413;BME280;3239;48.714;9.472;2023-07-02T03:30:52;98239.22;;;15.76;100.00
6413;BME280;3239;48.714;9.472;2023-07-02T03:33:18;98250.63;;;15.80;100.00
6413;BME280;3239;48.714;9.472;2023-07-02T03:35:44;98260.19;;;15.86;100.00
6413;BME280;3239;48.714;9.472;2023-07-02T03:38:10;98257.97;;;15.85;100.00
6413;BME280;3239;48.714;9.472;2023-07-02T03:40:35;98259.63;;;15.88;100.00
6413;BME280;3239;48.714;9.472;2023-07-02T03:43:01;98278.03;;;15.85;100.00
6413;BME280;3239;48.714;9.472;2023-07-02T03:45:27;98288.91;;;15.91;100.00
6413;BME280;3239;48.714;9.472;2023-07-02T03:47:52;98294.44;;;15.83;100.00
6413;BME280;3239;48.714;9.472;2023-07-02T03:50:18;98294.63;;;15.78;100.00
6413;BME280;3239;48.714;9.472;2023-07-02T03:52:44;98288.59;;;15.64;100.00
6413;BME280;3239;48.714;9.472;2023-07-02T03:55:10;98283.81;;;15.65;100.00
6413;BME280;3239;48.714;9.472;2023-07-02T03:57:35;98281.03;;;15.72;100.00
6413;BME280;3239;48.714;9.472;2023-07-02T04:00:01;98282.13;;;15.77;100.00
6413;BME280;3239;48.714;9.472;2023-07-02T04:02:28;98272.38;;;15.76;100.00
6413;BME280;3239;48.714;9.472;2023-07-02T04:04:53;98286.00;;;15.74;100.00
6413;BME280;3239;48.714;9.472;2023-07-02T04:07:19;98279.38;;;15.69;100.00
6413;BME280;3239;48.714;9.472;2023-07-02T04:09:45;98283.06;;;15.72;100.00
6413;BME280;3239;48.714;9.472;2023-07-02T04:12:10;98294.84;;;15.72;100.00
6413;BME280;3239;48.714;9.472;2023-07-02T04:14:36;98296.31;;;15.66;100.00
6413;BME280;3239;48.714;9.472;2023-07-02T04:17:02;98298.00;;;15.69;100.00
6413;BME280;3239;48.714;9.472;2023-07-02T04:19:31;98296.53;;;15.68;100.00
6413;BME280;3239;48.714;9.472;2023-07-02T04:21:56;98299.66;;;15.57;100.00
6413;BME280;3239;48.714;9.472;2023-07-02T04:24:22;98302.06;;;15.68;100.00
6413;BME280;3239;48.714;9.472;2023-07-02T04:26:48;98301.66;;;15.71;100.00
6413;BME280;3239;48.714;9.472;2023-07-02T04:29:13;98307.91;;;15.72;100.00
6413;BME280;3239;48.714;9.472;2023-07-02T04:31:39;98318.25;;;15.64;100.00
6413;BME280;3239;48.714;9.472;2023-07-02T04:34:05;98311.81;;;15.54;100.00
6413;BME280;3239;48.714;9.472;2023-07-02T04:36:31;98317.72;;;15.58;100.00
6413;BME280;3239;48.714;9.472;2023-07-02T04:38:57;98328.00;;;15.57;100.00
6413;BME280;3239;48.714;9.472;2023-07-02T04:41:23;98331.16;;;15.46;100.00
6413;BME280;3239;48.714;9.472;2023-07-02T04:43:49;98336.84;;;15.48;100.00
6413;BME280;3239;48.714;9.472;2023-07-02T04:46:14;98336.84;;;15.56;100.00
6413;BME280;3239;48.714;9.472;2023-07-02T04:48:40;98344.59;;;15.57;100.00
6413;BME280;3239;48.714;9.472;2023-07-02T04:51:06;98342.19;;;15.61;100.00
6413;BME280;3239;48.714;9.472;2023-07-02T04:53:32;98355.63;;;15.72;100.00
6413;BME280;3239;48.714;9.472;2023-07-02T04:55:57;98358.56;;;15.74;100.00
6413;BME280;3239;48.714;9.472;2023-07-02T04:58:23;98356.91;;;15.79;100.00
6413;BME280;3239;48.714;9.472;2023-07-02T05:00:49;98353.78;;;15.67;100.00
6413;BME280;3239;48.714;9.472;2023-07-02T05:03:15;98344.41;;;15.48;100.00
6413;BME280;3239;48.714;9.472;2023-07-02T05:05:41;98343.50;;;15.38;100.00
6413;BME280;3239;48.714;9.472;2023-07-02T05:08:06;98355.25;;;15.53;100.00
6413;BME280;3239;48.714;9.472;2023-07-02T05:10:32;98359.69;;;15.56;100.00
6413;BME280;3239;48.714;9.472;2023-07-02T05:12:58;98359.13;;;15.35;100.00
6413;BME280;3239;48.714;9.472;2023-07-02T05:15:24;98371.66;;;15.51;100.00
6413;BME280;3239;48.714;9.472;2023-07-02T05:17:50;98368.13;;;15.58;100.00
6413;BME280;3239;48.714;9.472;2023-07-02T05:20:16;98376.44;;;15.58;100.00
6413;BME280;3239;48.714;9.472;2023-07-02T05:22:41;98376.97;;;15.57;100.00
6413;BME280;3239;48.714;9.472;2023-07-02T05:25:08;98383.63;;;15.76;100.00
6413;BME280;3239;48.714;9.472;2023-07-02T05:27:34;98387.31;;;15.71;100.00
6413;BME280;3239;48.714;9.472;2023-07-02T05:30:00;98385.63;;;15.53;100.00
6413;BME280;3239;48.714;9.472;2023-07-02T05:32:25;98387.09;;;15.62;100.00
6413;BME280;3239;48.714;9.472;2023-07-02T05:34:51;98370.19;;;15.43;100.00
6413;BME280;3239;48.714;9.472;2023-07-02T05:37:17;98375.50;;;15.56;100.00
6413;BME280;3239;48.714;9.472;2023-07-02T05:39:43;98375.50;;;15.71;100.00
6413;BME280;3239;48.714;9.472;2023-07-02T05:42:09;98372.56;;;15.84;100.00
6413;BME280;3239;48.714;9.472;2023-07-02T05:44:35;98361.84;;;15.80;100.00
6413;BME280;3239;48.714;9.472;2023-07-02T05:47:00;98367.91;;;16.01;100.00
6413;BME280;3239;48.714;9.472;2023-07-02T05:49:26;98371.38;;;16.17;100.00
6413;BME280;3239;48.714;9.472;2023-07-02T05:51:52;98365.06;;;16.31;100.00
6413;BME280;3239;48.714;9.472;2023-07-02T05:54:18;98357.00;;;16.26;100.00
6413;BME280;3239;48.714;9.472;2023-07-02T05:56:43;98346.69;;;16.11;100.00
6413;BME280;3239;48.714;9.472;2023-07-02T05:59:09;98331.22;;;16.16;100.00
6413;BME280;3239;48.714;9.472;2023-07-02T06:01:36;98330.00;;;16.49;100.00
6413;BME280;3239;48.714;9.472;2023-07-02T06:04:02;98316.19;;;16.81;100.00
6413;BME280;3239;48.714;9.472;2023-07-02T06:06:27;98294.56;;;16.55;100.00
6413;BME280;3239;48.714;9.472;2023-07-02T06:08:53;98281.47;;;16.55;100.00
6413;BME280;3239;48.714;9.472;2023-07-02T06:11:19;98267.41;;;16.61;100.00
6413;BME280;3239;48.714;9.472;2023-07-02T06:13:45;98253.38;;;16.66;100.00
6413;BME280;3239;48.714;9.472;2023-07-02T06:16:10;98257.78;;;16.69;100.00
6413;BME280;3239;48.714;9.472;2023-07-02T06:18:36;98242.78;;;16.80;100.00
6413;BME280;3239;48.714;9.472;2023-07-02T06:21:02;98234.22;;;17.10;100.00
6413;BME280;3239;48.714;9.472;2023-07-02T06:23:30;98223.72;;;17.08;100.00
6413;BME280;3239;48.714;9.472;2023-07-02T06:25:55;98222.25;;;17.66;100.00
6413;BME280;3239;48.714;9.472;2023-07-02T06:28:26;98198.00;;;18.00;100.00
6413;BME280;3239;48.714;9.472;2023-07-02T06:30:52;98166.88;;;18.81;100.00
6413;BME280;3239;48.714;9.472;2023-07-02T06:33:17;98115.94;;;19.05;100.00
6413;BME280;3239;48.714;9.472;2023-07-02T06:35:43;98052.41;;;18.35;100.00
6413;BME280;3239;48.714;9.472;2023-07-02T06:38:09;98039.19;;;18.62;100.00
6413;BME280;3239;48.714;9.472;2023-07-02T06:40:34;98018.59;;;18.75;100.00
6413;BME280;3239;48.714;9.472;2023-07-02T06:43:00;98021.09;;;18.80;100.00
6413;BME280;3239;48.714;9.472;2023-07-02T06:45:26;98022.38;;;18.60;100.00
6413;BME280;3239;48.714;9.472;2023-07-02T06:47:51;98039.22;;;19.00;100.00
6413;BME280;3239;48.714;9.472;2023-07-02T06:50:17;98027.78;;;19.53;100.00
6413;BME280;3239;48.714;9.472;2023-07-02T06:52:43;97991.50;;;20.01;100.00
6413;BME280;3239;48.714;9.472;2023-07-02T06:55:09;97959.06;;;20.15;100.00
6413;BME280;3239;48.714;9.472;2023-07-02T06:57:35;97935.88;;;19.30;100.00
6413;BME280;3239;48.714;9.472;2023-07-02T07:00:00;97930.13;;;19.78;100.00
6413;BME280;3239;48.714;9.472;2023-07-02T07:02:27;97928.72;;;19.98;100.00
6413;BME280;3239;48.714;9.472;2023-07-02T07:04:53;97941.41;;;19.80;100.00
6413;BME280;3239;48.714;9.472;2023-07-02T07:07:18;97928.53;;;19.75;100.00
6413;BME280;3239;48.714;9.472;2023-07-02T07:09:45;97927.63;;;20.33;100.00
6413;BME280;3239;48.714;9.472;2023-07-02T07:12:10;97924.88;;;20.03;100.00
6413;BME280;3239;48.714;9.472;2023-07-02T07:14:36;97904.09;;;20.46;100.00
6413;BME280;3239;48.714;9.472;2023-07-02T07:17:02;97901.88;;;20.33;100.00
6413;BME280;3239;48.714;9.472;2023-07-02T07:19:28;97903.41;;;19.94;100.00
6413;BME280;3239;48.714;9.472;2023-07-02T07:21:54;97902.59;;;19.82;100.00
6413;BME280;3239;48.714;9.472;2023-07-02T07:24:19;97907.47;;;19.72;100.00
6413;BME280;3239;48.714;9.472;2023-07-02T07:26:45;97906.03;;;19.71;100.00
6413;BME280;3239;48.714;9.472;2023-07-02T07:29:11;97921.66;;;19.36;100.00
6413;BME280;3239;48.714;9.472;2023-07-02T07:31:37;97915.09;;;19.71;100.00
6413;BME280;3239;48.714;9.472;2023-07-02T07:34:03;97917.94;;;19.52;100.00
6413;BME280;3239;48.714;9.472;2023-07-02T07:36:28;97910.19;;;19.51;100.00
6413;BME280;3239;48.714;9.472;2023-07-02T07:38:54;97908.53;;;19.17;100.00
6413;BME280;3239;48.714;9.472;2023-07-02T07:41:20;97900.91;;;19.27;100.00
6413;BME280;3239;48.714;9.472;2023-07-02T07:43:45;97896.53;;;19.64;100.00
6413;BME280;3239;48.714;9.472;2023-07-02T07:46:11;97909.69;;;19.94;100.00
6413;BME280;3239;48.714;9.472;2023-07-02T07:48:37;97900.47;;;19.71;100.00
6413;BME280;3239;48.714;9.472;2023-07-02T07:51:03;97917.56;;;19.98;100.00
6413;BME280;3239;48.714;9.472;2023-07-02T07:53:28;97910.47;;;20.37;100.00
6413;BME280;3239;48.714;9.472;2023-07-02T07:55:54;97908.28;;;20.56;100.00
6413;BME280;3239;48.714;9.472;2023-07-02T07:58:20;97891.44;;;20.33;100.00
6413;BME280;3239;48.714;9.472;2023-07-02T08:00:46;97894.91;;;20.22;100.00
6413;BME280;3239;48.714;9.472;2023-07-02T08:03:11;97902.63;;;20.03;100.00
6413;BME280;3239;48.714;9.472;2023-07-02T08:05:37;97890.66;;;19.70;100.00
6413;BME280;3239;48.714;9.472;2023-07-02T08:08:03;97897.59;;;20.32;100.00
6413;BME280;3239;48.714;9.472;2023-07-02T08:10:29;97883.97;;;20.36;100.00
6413;BME280;3239;48.714;9.472;2023-07-02T08:12:54;97875.88;;;20.93;100.00
6413;BME280;3239;48.714;9.472;2023-07-02T08:15:20;97877.47;;;21.08;100.00
6413;BME280;3239;48.714;9.472;2023-07-02T08:17:46;97872.63;;;21.08;100.00
6413;BME280;3239;48.714;9.472;2023-07-02T08:20:12;97870.41;;;20.63;100.00
6413;BME280;3239;48.714;9.472;2023-07-02T08:22:39;97870.44;;;21.07;100.00
6413;BME280;3239;48.714;9.472;2023-07-02T08:25:06;97865.53;;;21.40;100.00
6413;BME280;3239;48.714;9.472;2023-07-02T08:27:32;97863.47;;;21.40;100.00
6413;BME280;3239;48.714;9.472;2023-07-02T08:29:58;97862.00;;;21.39;100.00
6413;BME280;3239;48.714;9.472;2023-07-02T08:32:24;97865.84;;;22.03;100.00
6413;BME280;3239;48.714;9.472;2023-07-02T08:34:49;97863.66;;;22.13;100.00
6413;BME280;3239;48.714;9.472;2023-07-02T08:37:20;97858.03;;;22.86;100.00
6413;BME280;3239;48.714;9.472;2023-07-02T08:39:46;97851.50;;;23.07;100.00
6413;BME280;3239;48.714;9.472;2023-07-02T08:42:12;97857.00;;;22.43;100.00
6413;BME280;3239;48.714;9.472;2023-07-02T08:44:37;97851.97;;;22.28;100.00
6413;BME280;3239;48.714;9.472;2023-07-02T08:47:05;97865.53;;;22.34;100.00
6413;BME280;3239;48.714;9.472;2023-07-02T08:49:31;97860.91;;;21.90;100.00
6413;BME280;3239;48.714;9.472;2023-07-02T08:51:58;97852.53;;;21.90;100.00
6413;BME280;3239;48.714;9.472;2023-07-02T08:54:24;97849.47;;;22.57;100.00
6413;BME280;3239;48.714;9.472;2023-07-02T08:56:49;97848.13;;;22.58;100.00
6413;BME280;3239;48.714;9.472;2023-07-02T08:59:15;97855.16;;;22.11;100.00
6413;BME280;3239;48.714;9.472;2023-07-02T09:01:53;97845.13;;;22.93;100.00
6413;BME280;3239;48.714;9.472;2023-07-02T09:04:20;97847.25;;;23.71;100.00
6413;BME280;3239;48.714;9.472;2023-07-02T09:07:10;97835.06;;;24.34;100.00
6413;BME280;3239;48.714;9.472;2023-07-02T09:09:54;97833.56;;;23.64;100.00
6413;BME280;3239;48.714;9.472;2023-07-02T09:12:30;97832.41;;;23.82;100.00
6413;BME280;3239;48.714;9.472;2023-07-02T09:15:05;97836.22;;;24.16;100.00
6413;BME280;3239;48.714;9.472;2023-07-02T09:17:40;97828.09;;;24.93;100.00
6413;BME280;3239;48.714;9.472;2023-07-02T09:20:07;97829.66;;;24.38;100.00
6413;BME280;3239;48.714;9.472;2023-07-02T09:22:35;97831.78;;;24.82;100.00
6413;BME280;3239;48.714;9.472;2023-07-02T09:25:02;97827.88;;;23.35;100.00
6413;BME280;3239;48.714;9.472;2023-07-02T09:27:39;97817.13;;;24.26;100.00
6413;BME280;3239;48.714;9.472;2023-07-02T09:30:16;97822.59;;;23.02;100.00
6413;BME280;3239;48.714;9.472;2023-07-02T09:32:43;97825.22;;;22.73;100.00
6413;BME280;3239;48.714;9.472;2023-07-02T09:35:10;97833.09;;;22.77;100.00
6413;BME280;3239;48.714;9.472;2023-07-02T09:37:36;97818.06;;;23.09;100.00
6413;BME280;3239;48.714;9.472;2023-07-02T09:40:03;97822.19;;;23.73;100.00
6413;BME280;3239;48.714;9.472;2023-07-02T09:42:35;97818.34;;;24.94;100.00
6413;BME280;3239;48.714;9.472;2023-07-02T09:45:02;97817.22;;;24.86;100.00
6413;BME280;3239;48.714;9.472;2023-07-02T09:47:29;97815.13;;;25.31;100.00
6413;BME280;3239;48.714;9.472;2023-07-02T09:50:04;97815.75;;;25.45;100.00
6413;BME280;3239;48.714;9.472;2023-07-02T09:52:34;97802.25;;;25.41;100.00
6413;BME280;3239;48.714;9.472;2023-07-02T09:55:00;97807.56;;;26.85;100.00
6413;BME280;3239;48.714;9.472;2023-07-02T09:57:27;97794.72;;;25.61;100.00
6413;BME280;3239;48.714;9.472;2023-07-02T09:59:58;97804.41;;;24.81;100.00
6413;BME280;3239;48.714;9.472;2023-07-02T10:02:24;97797.75;;;25.19;100.00
6413;BME280;3239;48.714;9.472;2023-07-02T10:04:50;97802.94;;;24.80;100.00
6413;BME280;3239;48.714;9.472;2023-07-02T10:07:31;97799.38;;;23.52;100.00
6413;BME280;3239;48.714;9.472;2023-07-02T10:10:00;97800.16;;;24.51;100.00
6413;BME280;3239;48.714;9.472;2023-07-02T10:12:28;97794.72;;;25.61;100.00
6413;BME280;3239;48.714;9.472;2023-07-02T10:14:57;97787.56;;;26.24;100.00
6413;BME280;3239;48.714;9.472;2023-07-02T10:19:55;97796.41;;;26.87;95.72
6413;BME280;3239;48.714;9.472;2023-07-02T10:22:22;97801.72;;;26.79;89.72
6413;BME280;3239;48.714;9.472;2023-07-02T10:25:06;97803.75;;;27.13;74.32
6413;BME280;3239;48.714;9.472;2023-07-02T10:27:41;97792.31;;;26.20;92.59
6413;BME280;3239;48.714;9.472;2023-07-02T10:30:10;97790.94;;;24.93;100.00
6413;BME280;3239;48.714;9.472;2023-07-02T10:32:37;97777.56;;;25.22;100.00
6413;BME280;3239;48.714;9.472;2023-07-02T10:35:19;97775.03;;;25.28;100.00
6413;BME280;3239;48.714;9.472;2023-07-02T10:37:45;97777.44;;;24.74;100.00
6413;BME280;3239;48.714;9.472;2023-07-02T10:40:12;97775.56;;;24.94;100.00
6413;BME280;3239;48.714;9.472;2023-07-02T10:42:49;97767.50;;;25.97;100.00
6413;BME280;3239;48.714;9.472;2023-07-02T10:45:16;97778.63;;;25.46;94.27
6413;BME280;3239;48.714;9.472;2023-07-02T10:47:42;97782.38;;;26.34;89.15
6413;BME280;3239;48.714;9.472;2023-07-02T10:50:19;97766.22;;;25.67;73.93
6413;BME280;3239;48.714;9.472;2023-07-02T10:52:47;97785.78;;;24.87;70.43
6413;BME280;3239;48.714;9.472;2023-07-02T10:55:24;97782.00;;;24.52;74.19
6413;BME280;3239;48.714;9.472;2023-07-02T10:58:05;97789.16;;;25.46;80.85
6413;BME280;3239;48.714;9.472;2023-07-02T11:00:32;97775.47;;;26.20;70.67
6413;BME280;3239;48.714;9.472;2023-07-02T11:02:59;97784.75;;;26.07;66.87
6413;BME280;3239;48.714;9.472;2023-07-02T11:05:25;97786.72;;;25.87;80.48
6413;BME280;3239;48.714;9.472;2023-07-02T11:07:51;97781.41;;;26.10;70.95
6413;BME280;3239;48.714;9.472;2023-07-02T11:10:23;97765.34;;;26.30;72.54
6413;BME280;3239;48.714;9.472;2023-07-02T11:12:49;97768.00;;;25.76;63.52
6413;BME280;3239;48.714;9.472;2023-07-02T11:15:17;97761.44;;;25.54;75.82
6413;BME280;3239;48.714;9.472;2023-07-02T11:17:45;97782.34;;;26.17;84.61
6413;BME280;3239;48.714;9.472;2023-07-02T11:20:13;97774.13;;;25.55;76.86
6413;BME280;3239;48.714;9.472;2023-07-02T11:22:40;97771.97;;;25.22;78.99
6413;BME280;3239;48.714;9.472;2023-07-02T11:27:41;97766.44;;;25.24;75.30
6413;BME280;3239;48.714;9.472;2023-07-02T11:30:08;97773.13;;;25.17;77.44
6413;BME280;3239;48.714;9.472;2023-07-02T11:32:53;97758.31;;;25.15;71.00
6413;BME280;3239;48.714;9.472;2023-07-02T11:35:19;97759.72;;;25.47;71.00
6413;BME280;3239;48.714;9.472;2023-07-02T11:37:46;97775.13;;;25.94;76.11
6413;BME280;3239;48.714;9.472;2023-07-02T11:40:14;97756.44;;;26.01;68.49
6413;BME280;3239;48.714;9.472;2023-07-02T11:42:40;97762.28;;;26.07;69.05
6413;BME280;3239;48.714;9.472;2023-07-02T11:45:07;97761.72;;;25.60;69.88
6413;BME280;3239;48.714;9.472;2023-07-02T11:47:33;97757.47;;;25.92;71.96
6413;BME280;3239;48.714;9.472;2023-07-02T11:49:58;97758.84;;;26.43;77.91
6413;BME280;3239;48.714;9.472;2023-07-02T11:52:25;97755.22;;;25.09;61.77
6413;BME280;3239;48.714;9.472;2023-07-02T11:54:51;97757.75;;;25.49;76.12
6413;BME280;3239;48.714;9.472;2023-07-02T11:57:16;97757.34;;;25.90;75.33
6413;BME280;3239;48.714;9.472;2023-07-02T11:59:42;97754.38;;;25.86;67.93
6413;BME280;3239;48.714;9.472;2023-07-02T12:02:08;97737.84;;;25.76;62.73
6413;BME280;3239;48.714;9.472;2023-07-02T12:04:34;97744.84;;;25.27;65.91
6413;BME280;3239;48.714;9.472;2023-07-02T12:07:01;97736.69;;;24.86;58.62
6413;BME280;3239;48.714;9.472;2023-07-02T12:09:29;97742.22;;;25.31;59.35
6413;BME280;3239;48.714;9.472;2023-07-02T12:11:55;97748.34;;;25.12;57.41
6413;BME280;3239;48.714;9.472;2023-07-02T12:14:21;97744.75;;;25.73;62.22
6413;BME280;3239;48.714;9.472;2023-07-02T12:16:46;97745.03;;;26.14;60.29
6413;BME280;3239;48.714;9.472;2023-07-02T12:19:12;97749.06;;;26.44;59.14
6413;BME280;3239;48.714;9.472;2023-07-02T12:21:38;97741.66;;;26.35;56.04
6413;BME280;3239;48.714;9.472;2023-07-02T12:24:04;97738.00;;;26.31;60.87
6413;BME280;3239;48.714;9.472;2023-07-02T12:26:35;97744.78;;;26.78;69.12
6413;BME280;3239;48.714;9.472;2023-07-02T12:29:01;97731.41;;;26.96;59.67
6413;BME280;3239;48.714;9.472;2023-07-02T12:31:27;97723.16;;;26.28;55.39
6413;BME280;3239;48.714;9.472;2023-07-02T12:33:52;97732.28;;;27.20;66.33
6413;BME280;3239;48.714;9.472;2023-07-02T12:36:18;97726.78;;;27.05;54.03
6413;BME280;3239;48.714;9.472;2023-07-02T12:38:44;97724.22;;;27.30;54.05
6413;BME280;3239;48.714;9.472;2023-07-02T12:41:09;97730.25;;;27.03;51.53
6413;BME280;3239;48.714;9.472;2023-07-02T12:43:35;97729.47;;;27.20;53.92
6413;BME280;3239;48.714;9.472;2023-07-02T12:46:01;97729.41;;;27.38;52.21
6413;BME280;3239;48.714;9.472;2023-07-02T12:48:27;97727.31;;;26.27;49.06
6413;BME280;3239;48.714;9.472;2023-07-02T12:50:58;97739.19;;;26.61;54.71
6413;BME280;3239;48.714;9.472;2023-07-02T12:53:25;97729.09;;;26.19;52.11
6413;BME280;3239;48.714;9.472;2023-07-02T12:55:52;97725.00;;;26.57;53.35
6413;BME280;3239;48.714;9.472;2023-07-02T12:58:18;97726.03;;;26.30;55.33
6413;BME280;3239;48.714;9.472;2023-07-02T13:00:44;97733.31;;;25.52;53.28
6413;BME280;3239;48.714;9.472;2023-07-02T13:03:12;97716.94;;;25.46;51.92
6413;BME280;3239;48.714;9.472;2023-07-02T13:05:39;97724.00;;;26.50;55.82
6413;BME280;3239;48.714;9.472;2023-07-02T13:08:06;97720.78;;;25.88;52.33
6413;BME280;3239;48.714;9.472;2023-07-02T13:10:33;97728.25;;;26.51;55.49
6413;BME280;3239;48.714;9.472;2023-07-02T13:13:00;97728.22;;;25.97;46.40
6413;BME280;3239;48.714;9.472;2023-07-02T13:15:26;97728.81;;;26.65;49.94
6413;BME280;3239;48.714;9.472;2023-07-02T13:17:52;97723.78;;;26.44;51.35